Allison, TX

10:21 AM CDT on August 23, 2014 (GMT -0500)
RAWS WHEELER RAWS TX US | Change Station
CLOSE
Current Station
Personal Weather Station
Location: Wheeler, TX
Elevation: 2375 ft
Nearby Weather Stations

Elev 2375 ft 35.45 °N, 100.20 °W | Updated 43 minutes ago

Clear
Clear
81 °F
Feels Like 81 °F
N
11
Wind Variable Wind from SSW
Gusts 18.0 mph

Today
High -- | Low -- °F
--% Chance of Precip.
Yesterday
High -- | Low -- °F
Precip. -- in
7:05 AM 8:19 PM
Waning Crescent, 3% visible
Pressure 29.94 in
Visibility 10.0 miles
Clouds Clear
Heat Index 81 °F
Dew Point 56 °F
Humidity 43%
Rainfall 0.00 in
Snow Depth Not available.
UV 4 out of 12
Pollen 9.40 out of 12
Air Quality Not available.
Flu Activity Not available.
METAR KHHF 231515Z AUTO 21014G21KT 10SM CLR 29/15 A2994 RMK AO2 T02900148

More Conditions Fewer Conditions

Pressure 29.94 in
Visibility 10.0 miles
Clouds Clear
Heat Index 81 °F
Dew Point 56 °F
Humidity 43%
Rainfall 0.00 in
Snow Depth Not available.
UV 4 out of 12
Pollen 9.40 out of 12
Air Quality Not available.
Flu Activity Not available.
METAR KHHF 231515Z AUTO 21014G21KT 10SM CLR 29/15 A2994 RMK AO2 T02900148

More Conditions Fewer Conditions

10-Day Weather Forecast

Almanac

Astronomy

Aug. 23, 2014 Rise Set
Actual Time 7:05 AM CDT 8:19 PM CDT
Civil Twilight 6:39 AM CDT 8:46 PM CDT
Nautical Twilight 6:07 AM CDT 9:17 PM CDT
Astronomical Twilight 5:34 AM CDT 9:50 PM CDT
Moon 5:25 AM CDT 7:05 PM CDT
Length of Visible Light 14h 06m
Length of Day
13h 13m
Tomorrow will be 2m 4s shorter.
Waning Crescent, 3% of the Moon is Illuminated
Today
Waning Crescent
Aug 25
New
Sep 2
First Quarter
Sep 8
Full
Sep 15
Last Quarter

Today's Extremes

State Highs State Lows

Community

WunderPhotos

Upload Photos

1,746,495 photos uploaded!

WunderBlogs® & News

By Dr. Jeff Masters
Director of Meteorology, Weather Underground
By Kari Strenfel
Meteorologist, Weather Underground
By Christopher C. Burt
Weather Historian, Weather Underground
August 23, 2014
August 23, 2014
August 23, 2014

Nearby

Snow Depth

Station Depth Elevation
No new snow has been reported.

Earthquake Activity

City Distance Mag. Time & Date
Cherokee, Oklahoma 138 miles 3.8 8:25 PM CDT
2014-08-17
Cherokee, Oklahoma 130 miles 2.6 11:50 AM CDT
2014-08-17
Minimum magnitude displayed is 2.5.

Coastal Water Temperatures

Place Temperature
No Stations Reporting

Nearby Weather Stations